Terminal Aerodrome Forecast
Issued by NWS

Home | Current Version | Previous Version | Text Only | Print | Product List | Glossary On
Versions: 1 2 3 4 5 6 7 8 9 10 11 12 13 14 15 16
000
FTUS46 KMFR 271140
TAFRBG
TAF
KRBG 271140Z 2712/2812 VRB03KT P6SM -SHRA SCT025 OVC035
     FM271400 VRB03KT 4SM -SHRA BR OVC025
     FM272000 32010KT P6SM -SHRA VCTS SCT025 OVC035CB
     FM280400 VRB02KT P6SM -SHRA BKN025 OVC040=

USA.gov is the U.S. government's official web portal to all federal, state and local government web resources and services.